Latest Weather Observations for Wilcannia Airport

IDN60801

Issued at 1:43 pm EDT Thursday 20 January 2022 (issued every 10 minutes, with the page automatically refreshed every 10 minutes)

About weather observations | Map of weather stations | Latest weather observations for NSW | Other Formats
Station Details ID: 046012 Name: WILCANNIA AERODROME AWS Lat: -31.52 Lon: 143.38 Height: 94.3 m
Data from the previous 72 hours. | See also: Recent months at Wilcannia Airport
Date/Time
EDT
Temp
°C
App
Temp
°C
Dew
Point
°C
Rel
Hum
%
Delta-T
°C
Wind Press
QNH
hPa
Press
MSL
hPa
Rain since
9am
mm
Dir  Spd
km/h
Gust
km/h
Spd
kts
Gust
kts
20/01:30pm 28.5 25.7 13.2 39 9.1 E 20 33 11 18 1018.7 1018.1 0.0
20/01:00pm 27.7 25.5 14.3 43 8.0 E 19 28 10 15 1019.2 1018.6 0.0
20/12:30pm 26.3 23.5 14.4 48 7.1 E 22 32 12 17 1019.6 1019.0 0.0
20/12:00pm 24.9 21.5 14.7 53 6.1 E 26 33 14 18 1019.6 1019.0 0.0
20/11:30am 23.3 18.9 14.0 56 5.5 E 30 41 16 22 1019.6 1019.0 0.0
20/11:00am 23.4 18.9 14.9 59 5.1 E 32 41 17 22 1019.6 1019.0 0.0
20/10:30am 21.7 17.9 14.8 65 4.1 E 28 37 15 20 1019.6 1019.0 0.0
20/10:00am 21.6 17.8 14.7 65 4.1 E 28 35 15 19 1019.7 1019.1 0.0
20/09:30am 21.4 17.1 14.3 64 4.2 E 30 41 16 22 1019.4 1018.8 0.0
20/09:00am 21.3 18.1 14.2 64 4.1 ESE 24 37 13 20 1019.2 1018.6 0.0
20/08:30am 21.3 18.2 14.5 65 4.0 ESE 24 35 13 19 1018.8 1018.2 0.0
20/08:00am 21.2 19.1 14.6 66 3.9 ESE 19 24 10 13 1018.6 1018.0 0.0
20/07:30am 21.2 18.4 14.4 65 4.0 ESE 22 30 12 16 1018.2 1017.6 0.0
20/07:00am 21.2 17.7 14.6 66 3.9 ESE 26 35 14 19 1018.0 1017.4 0.0
20/06:30am 21.2 18.2 14.8 67 3.8 ESE 24 33 13 18 1017.7 1017.1 0.0
20/06:00am 21.0 18.9 15.1 69 3.5 ESE 20 28 11 15 1017.3 1016.7 0.0
20/05:30am 21.2 17.6 15.3 69 3.5 ESE 28 37 15 20 1016.8 1016.2 0.0
20/05:00am 20.9 17.8 14.5 67 3.8 ESE 24 33 13 18 1016.5 1015.9 0.0
20/04:30am 21.2 17.7 14.6 66 3.9 ESE 26 35 14 19 1016.3 1015.7 0.0
20/04:00am 21.3 18.1 15.2 68 3.6 ESE 26 33 14 18 1016.2 1015.6 0.0
20/03:30am 21.8 18.6 16.3 71 3.3 ESE 28 39 15 21 1016.0 1015.4 0.0
20/03:00am 21.5 19.5 17.5 78 2.5 ESE 24 32 13 17 1016.2 1015.6 0.0
20/02:30am 21.4 19.9 17.6 79 2.4 ESE 22 28 12 15 1016.3 1015.7 0.0
20/02:00am 21.2 19.7 17.8 81 2.1 ESE 22 28 12 15 1016.3 1015.7 0.0
20/01:30am 21.1 20.2 18.3 84 1.8 ESE 20 28 11 15 1016.6 1016.0 0.0
20/01:00am 21.1 21.0 17.9 82 2.0 SE 15 19 8 10 1016.8 1016.2 0.0
20/12:30am 21.1 21.3 17.7 81 2.1 ESE 13 17 7 9 1017.0 1016.4 0.0
20/12:00am 21.5 20.9 17.5 78 2.5 ESE 17 20 9 11 1016.9 1016.3 0.0
 
Date/Time
EDT
Temp
°C
App
Temp
°C
Dew
Point
°C
Rel
Hum
%
Delta-T
°C
Wind Press
QNH
hPa
Press
MSL
hPa
Rain since
9am
mm
Dir  Spd
km/h
Gust
km/h
Spd
kts
Gust
kts
19/11:30pm 21.8 20.7 17.4 76 2.7 ESE 19 24 10 13 1016.9 1016.3 0.0
19/11:00pm 21.9 20.9 17.5 76 2.7 ESE 19 28 10 15 1016.5 1015.9 0.0
19/10:30pm 22.1 20.9 17.5 75 2.9 ESE 20 28 11 15 1016.2 1015.6 0.0
19/10:00pm 22.4 20.8 17.5 74 3.0 E 22 30 12 16 1015.8 1015.2 0.0
19/09:30pm 22.8 20.5 17.5 72 3.3 ESE 26 35 14 19 1015.5 1014.9 0.0
19/09:00pm 23.2 20.3 17.9 72 3.3 ESE 30 41 16 22 1015.2 1014.6 0.0
19/08:33pm 23.8 20.8 17.8 69 3.8 ESE 30 50 16 27 1014.8 1014.2 0.0
19/08:30pm 23.9 21.9 18.3 71 3.5 ESE 26 41 14 22 1014.8 1014.2 0.0
19/08:00pm 24.0 23.8 19.7 77 2.8 ESE 20 28 11 15 1014.0 1013.4 0.0
19/07:30pm 24.1 23.8 19.6 76 2.9 ESE 20 28 11 15 1013.6 1012.9 0.0
19/07:00pm 23.8 22.9 19.9 79 2.5 ESE 24 37 13 20 1013.4 1012.7 0.0
19/06:30pm 23.8 22.7 19.5 77 2.8 SE 24 33 13 18 1013.2 1012.5 0.0
19/06:00pm 23.6 22.6 18.9 75 3.0 SE 22 28 12 15 1013.4 1012.7 0.0
19/05:30pm 23.7 22.8 19.0 75 3.0 SE 22 30 12 16 1013.3 1012.6 0.0
19/05:00pm 23.8 22.4 18.7 73 3.2 SE 24 35 13 19 1013.6 1012.9 0.0
19/04:30pm 25.1 23.7 19.7 72 3.5 SE 26 37 14 20 1013.6 1012.9 0.0
19/04:00pm 23.9 23.1 20.0 79 2.5 SE 24 32 13 17 1013.7 1013.0 0.0
19/03:30pm 23.1 22.1 19.7 81 2.2 SE 24 32 13 17 1014.0 1013.4 0.0
19/03:00pm 23.3 22.8 19.9 81 2.2 SE 22 30 12 16 1014.2 1013.6 0.0
19/02:30pm 23.5 22.5 19.6 79 2.5 SE 24 30 13 16 1014.1 1013.5 0.0
19/02:00pm 22.9 21.8 19.5 81 2.2 SSE 24 32 13 17 1014.2 1013.6 0.0
19/01:30pm 22.9 21.8 19.5 81 2.2 SSE 24 33 13 18 1014.3 1013.7 0.0
19/01:00pm 22.4 21.7 19.4 83 1.9 SSE 22 30 12 16 1014.2 1013.6 0.0
19/12:30pm 21.7 20.8 18.3 81 2.1 SSE 20 28 11 15 1014.5 1013.9 0.0
19/12:00pm 21.0 19.9 17.8 82 2.0 SSE 20 30 11 16 1014.5 1013.9 0.0
19/11:30am 20.9 19.8 17.7 82 2.0 SSE 20 28 11 15 1014.5 1013.9 0.0
19/11:00am 21.0 19.1 17.6 81 2.1 SSE 24 32 13 17 1014.3 1013.7 0.0
19/10:30am 20.4 18.8 17.4 83 1.8 SSE 22 30 12 16 1014.1 1013.5 0.0
19/10:00am 19.4 18.8 17.5 89 1.2 SSE 17 20 9 11 1014.3 1013.7 0.0
19/09:30am 19.2 18.0 17.5 90 1.0 SSE 20 28 11 15 1014.1 1013.5 0.0
19/09:00am 18.8 17.6 17.1 90 1.0 SSE 19 26 10 14 1014.0 1013.4 7.6
19/08:30am 18.6 16.4 16.8 89 1.1 SSE 24 35 13 19 1013.4 1012.7 7.6
19/08:00am 18.7 16.6 17.2 91 0.9 SSE 24 33 13 18 1012.7 1012.1 7.4
19/07:30am 19.3 17.0 17.6 90 1.0 SSE 26 37 14 20 1012.2 1011.6 7.4
19/07:00am 19.3 18.3 18.0 92 0.8 SSE 20 32 11 17 1011.8 1011.2 7.4
19/06:30am 19.2 17.3 17.7 91 0.9 SE 24 35 13 19 1011.6 1011.0 7.2
19/06:00am 19.5 18.5 18.0 91 0.9 SE 20 28 11 15 1011.3 1010.7 6.6
19/05:30am 19.6 19.6 18.1 91 0.9 ESE 15 20 8 11 1011.2 1010.6 6.0
19/05:00am 19.6 19.6 18.1 91 0.9 SE 15 19 8 10 1011.1 1010.5 5.4
19/04:30am 19.7 19.6 17.8 89 1.2 SE 15 19 8 10 1011.0 1010.4 4.8
19/04:00am 19.9 19.3 17.5 86 1.5 S 17 28 9 15 1010.8 1010.2 3.8
19/03:30am 21.3 20.6 17.3 78 2.5 SSE 17 24 9 13 1010.5 1009.9 2.0
19/03:00am 21.0 20.6 17.2 79 2.3 SSE 15 20 8 11 1010.5 1009.9 2.0
19/02:30am 20.8 20.4 17.2 80 2.2 S 15 20 8 11 1010.7 1010.1 2.0
19/02:00am 20.7 20.7 17.3 81 2.1 SSE 13 17 7 9 1011.1 1010.5 2.0
19/01:30am 20.6 20.0 17.6 83 1.9 S 17 22 9 12 1011.5 1010.9 2.0
19/01:00am 20.3 20.8 18.4 89 1.2 SSW 13 19 7 10 1011.8 1011.2 2.0
19/12:30am 20.7 20.8 18.3 86 1.5 SSW 15 22 8 12 1011.8 1011.2 1.6
19/12:00am 20.9 21.1 18.5 86 1.5 S 15 20 8 11 1011.7 1011.1 1.4
 
Date/Time
EDT
Temp
°C
App
Temp
°C
Dew
Point
°C
Rel
Hum
%
Delta-T
°C
Wind Press
QNH
hPa
Press
MSL
hPa
Rain since
9am
mm
Dir  Spd
km/h
Gust
km/h
Spd
kts
Gust
kts
18/11:30pm 20.7 21.3 18.6 88 1.3 SSW 13 19 7 10 1011.7 1011.1 1.4
18/11:00pm 21.0 21.7 18.8 87 1.4 SSW 13 19 7 10 1011.9 1011.3 1.2
18/10:30pm 21.5 22.3 18.1 81 2.1 SSW 11 15 6 8 1011.8 1011.2 0.6
18/10:00pm 23.2 22.9 16.5 66 4.1 SSW 13 17 7 9 1011.6 1011.0 0.2
18/09:30pm 23.2 22.2 16.5 66 4.1 S 17 20 9 11 1011.5 1010.9 0.2
18/09:00pm 23.1 22.6 16.9 68 3.8 S 15 20 8 11 1011.2 1010.6 0.2
18/08:30pm 23.0 22.5 17.0 69 3.7 S 15 20 8 11 1011.1 1010.5 0.2
18/08:00pm 23.4 22.1 16.9 67 4.0 S 19 26 10 14 1010.7 1010.1 0.2
18/07:30pm 22.9 21.8 17.4 71 3.4 S 19 24 10 13 1010.5 1009.9 0.2
18/07:00pm 24.0 22.4 16.5 63 4.6 S 20 28 11 15 1010.6 1010.0 0.2
18/06:30pm 24.2 22.2 16.5 62 4.7 S 22 30 12 16 1010.1 1009.5 0.2
18/06:00pm 24.9 22.6 16.6 60 5.1 S 24 35 13 19 1009.6 1009.0 0.2
18/05:30pm 25.1 22.5 16.8 60 5.1 S 26 35 14 19 1009.9 1009.3 0.0
18/05:00pm 25.8 23.6 16.9 58 5.5 S 24 32 13 17 1009.9 1009.3 0.0
18/04:30pm 25.5 23.3 16.9 59 5.3 SSE 24 32 13 17 1010.1 1009.5 0.0
18/04:00pm 25.3 23.1 17.0 60 5.2 SSE 24 35 13 19 1010.4 1009.8 0.0
18/03:30pm 26.0 23.0 16.8 57 5.7 SSE 28 37 15 20 1010.5 1009.9 0.0
18/03:00pm 26.0 23.6 16.5 55 5.9 SSE 24 33 13 18 1010.7 1010.1 0.0
18/02:30pm 24.6 22.4 16.8 62 4.8 S 24 33 13 18 1011.3 1010.7 0.0
18/02:00pm 24.1 22.3 16.9 64 4.5 SSE 22 33 12 18 1011.4 1010.8 0.0
18/01:30pm 24.4 22.1 16.6 61 4.8 S 24 32 13 17 1011.6 1011.0 0.0
18/01:00pm 24.1 22.2 17.6 67 4.1 S 24 32 13 17 1011.9 1011.3 0.0
18/12:30pm 24.5 22.8 18.2 68 4.0 S 24 32 13 17 1012.1 1011.5 0.0
18/12:00pm 24.0 22.8 18.4 71 3.5 S 22 30 12 16 1012.0 1011.4 0.0
18/11:30am 24.1 22.6 17.6 67 4.1 S 22 33 12 18 1012.3 1011.7 0.0
18/11:00am 24.1 22.2 16.6 63 4.6 S 22 32 12 17 1012.5 1011.9 0.0
18/10:30am 24.5 22.1 16.5 61 4.9 SSE 24 35 13 19 1012.7 1012.1 0.0
18/10:00am 23.5 22.0 16.8 66 4.1 S 20 28 11 15 1012.4 1011.8 0.0
18/09:30am 23.4 21.9 16.7 66 4.1 SSE 20 32 11 17 1012.0 1011.4 0.0
18/09:00am 23.3 21.7 16.6 66 4.1 SSE 20 32 11 17 1011.5 1010.9 0.0
18/08:30am 23.3 21.9 16.6 66 4.1 SSE 19 28 10 15 1011.3 1010.7 0.0
18/08:00am 23.0 22.4 17.5 71 3.4 SSE 17 24 9 13 1011.0 1010.4 0.0
18/07:30am 23.3 22.8 16.8 67 4.0 S 15 20 8 11 1011.0 1010.4 0.0
18/07:00am 23.6 22.6 16.6 65 4.3 S 17 22 9 12 1011.0 1010.4 0.0
18/06:30am 23.7 22.4 17.2 67 4.0 S 20 28 11 15 1010.2 1009.6 0.0
18/06:00am 23.5 23.3 18.4 73 3.2 SSE 17 22 9 12 1009.4 1008.8 0.0
18/05:30am 23.7 23.2 17.9 70 3.6 SSE 17 24 9 13 1009.0 1008.4 0.0
18/05:00am 23.9 23.3 17.6 68 3.9 SE 17 22 9 12 1009.2 1008.6 0.0
18/04:30am 23.9 23.6 17.4 67 4.0 SE 15 19 8 10 1009.5 1008.9 0.0
18/04:00am 24.0 25.2 18.2 70 3.7 SSE 9 13 5 7 1009.8 1009.2 0.0
18/03:30am 25.0 25.8 17.2 62 4.9 S 9 11 5 6 1009.9 1009.3 0.0
18/03:00am 25.9 27.7 16.5 56 5.8 S 2 7 1 4 1010.0 1009.4 0.0
18/02:30am 26.7 26.7 15.1 49 7.0 S 9 13 5 7 1010.0 1009.4 0.0
18/02:00am 26.9 26.3 14.6 46 7.4 SE 11 13 6 7 1010.2 1009.6 0.0
18/01:30am 27.1 26.3 14.1 44 7.8 SE 11 15 6 8 1010.6 1010.0 0.0
18/01:00am 27.4 25.9 14.1 44 8.0 SE 15 19 8 10 1011.1 1010.5 0.0
18/12:30am 27.7 26.0 13.6 42 8.4 SSE 15 22 8 12 1011.2 1010.6 0.0
18/12:00am 28.1 25.5 13.2 39 8.8 S 19 26 10 14 1011.5 1010.9 0.0
 
Date/Time
EDT
Temp
°C
App
Temp
°C
Dew
Point
°C
Rel
Hum
%
Delta-T
°C
Wind Press
QNH
hPa
Press
MSL
hPa
Rain since
9am
mm
Dir  Spd
km/h
Gust
km/h
Spd
kts
Gust
kts
17/11:30pm 28.5 25.6 12.8 38 9.3 S 20 30 11 16 1011.6 1011.0 0.0
17/11:00pm 28.7 25.9 12.6 37 9.5 SSE 19 28 10 15 1011.6 1011.0 0.0
17/10:30pm 28.9 25.4 12.3 36 9.7 SSE 22 30 12 16 1011.4 1010.8 0.0
17/10:00pm 29.3 26.1 11.4 33 10.4 SSE 19 28 10 15 1011.4 1010.8 0.0
17/09:30pm 29.5 26.2 11.5 32 10.4 S 20 30 11 16 1011.0 1010.4 0.0
17/09:00pm 29.6 24.7 11.2 32 10.6 S 28 35 15 19 1010.5 1009.9 0.0
17/08:30pm 29.9 26.2 11.4 32 10.7 S 22 30 12 16 1010.2 1009.6 0.0
17/08:00pm 30.5 25.1 11.0 30 11.3 S 30 37 16 20 1010.0 1009.4 0.0
17/07:30pm 30.6 25.8 11.5 30 11.1 S 28 39 15 21 1009.3 1008.7 0.0
17/07:00pm 31.0 25.7 11.4 30 11.4 SSW 30 44 16 24 1008.9 1008.3 0.0
17/06:40pm 31.4 25.5 11.2 29 11.8 S 33 52 18 28 1008.6 1008.0 0.0
17/06:30pm 31.7 25.0 11.0 28 12.0 S 37 52 20 28 1008.4 1007.8 0.0
17/06:22pm 31.9 26.0 11.1 28 12.1 S 33 52 18 28 1008.4 1007.8 0.0
17/06:00pm 32.6 26.9 11.2 27 12.5 S 32 46 17 25 1008.1 1007.5 0.0
17/05:30pm 32.5 26.2 11.1 27 12.5 SSW 35 46 19 25 1007.9 1007.3 0.0
17/05:00pm 33.4 27.4 10.7 25 13.3 S 33 46 18 25 1007.9 1007.3 0.0
17/04:30pm 34.5 28.6 11.0 24 13.8 SSW 33 48 18 26 1007.7 1007.1 0.0
17/04:00pm 34.2 27.8 10.7 24 13.8 SSW 35 44 19 24 1007.8 1007.2 0.0
17/03:38pm 34.5 28.6 10.4 23 14.0 S 32 52 17 28 1007.7 1007.1 0.0
17/03:30pm 34.8 28.9 10.6 23 14.2 SSW 32 44 17 24 1007.7 1007.1 0.0
17/03:00pm 34.9 30.4 10.0 22 14.5 S 24 32 13 17 1007.5 1006.9 0.0
17/02:30pm 34.9 30.8 10.0 22 14.4 S 22 32 12 17 1007.6 1007.0 0.0
17/02:00pm 35.4 31.8 9.7 21 14.9 SSE 19 28 10 15 1007.8 1007.2 0.0

Other formats

Comma delimited format used in spreadsheet applications
http://www.bom.gov.au/fwo/IDN60801/IDN60801.95695.axf

JavaScript Object Notation format (JSON) in row-major order
http://www.bom.gov.au/fwo/IDN60801/IDN60801.95695.json

Data quality

Most of these data are generated automatically and are frequently updated. Quality checks on data are not normally performed. It is possible for incorrect values to appear. Refer to information at About Latest Weather Observations and please check the disclaimer before using these data.